sensor_id;sensor_type;location;lat;lon;timestamp;pressure;altitude;pressure_sealevel;temperature;humidity
76114;BME280;64845;53.086;5.834;2023-05-07T00:01:47;101750.38;;;14.07;75.40
76114;BME280;64845;53.086;5.834;2023-05-07T00:04:12;101747.72;;;14.05;75.82
76114;BME280;64845;53.086;5.834;2023-05-07T00:06:38;101745.09;;;14.03;75.74
76114;BME280;64845;53.086;5.834;2023-05-07T00:09:05;101752.28;;;14.03;75.92
76114;BME280;64845;53.086;5.834;2023-05-07T00:11:31;101750.56;;;14.02;75.88
76114;BME280;64845;53.086;5.834;2023-05-07T00:13:56;101749.72;;;14.00;75.97
76114;BME280;64845;53.086;5.834;2023-05-07T00:16:22;101751.59;;;13.98;76.09
76114;BME280;64845;53.086;5.834;2023-05-07T00:18:47;101754.31;;;13.96;76.21
76114;BME280;64845;53.086;5.834;2023-05-07T00:21:13;101758.88;;;13.94;76.29
76114;BME280;64845;53.086;5.834;2023-05-07T00:23:39;101763.38;;;13.94;76.27
76114;BME280;64845;53.086;5.834;2023-05-07T00:26:04;101759.94;;;13.90;76.30
76114;BME280;64845;53.086;5.834;2023-05-07T00:28:29;101755.56;;;13.87;76.19
76114;BME280;64845;53.086;5.834;2023-05-07T00:30:55;101761.84;;;13.86;76.21
76114;BME280;64845;53.086;5.834;2023-05-07T00:33:21;101762.84;;;13.84;76.34
76114;BME280;64845;53.086;5.834;2023-05-07T00:35:47;101764.72;;;13.82;76.48
76114;BME280;64845;53.086;5.834;2023-05-07T00:38:12;101755.00;;;13.79;76.36
76114;BME280;64845;53.086;5.834;2023-05-07T00:40:38;101762.16;;;13.79;76.41
76114;BME280;64845;53.086;5.834;2023-05-07T00:43:03;101760.47;;;13.76;76.57
76114;BME280;64845;53.086;5.834;2023-05-07T00:45:29;101757.81;;;13.74;76.46
76114;BME280;64845;53.086;5.834;2023-05-07T00:47:55;101759.66;;;13.74;76.51
76114;BME280;64845;53.086;5.834;2023-05-07T00:50:21;101753.47;;;13.72;76.56
76114;BME280;64845;53.086;5.834;2023-05-07T00:52:47;101754.47;;;13.69;76.57
76114;BME280;64845;53.086;5.834;2023-05-07T00:55:13;101757.16;;;13.69;76.74
76114;BME280;64845;53.086;5.834;2023-05-07T00:57:40;101751.81;;;13.68;76.64
76114;BME280;64845;53.086;5.834;2023-05-07T01:00:07;101753.63;;;13.67;76.65
76114;BME280;64845;53.086;5.834;2023-05-07T01:02:35;101748.31;;;13.66;76.85
76114;BME280;64845;53.086;5.834;2023-05-07T01:05:01;101743.88;;;13.65;76.78
76114;BME280;64845;53.086;5.834;2023-05-07T01:07:28;101748.44;;;13.63;76.95
76114;BME280;64845;53.086;5.834;2023-05-07T01:09:54;101750.16;;;13.64;76.92
76114;BME280;64845;53.086;5.834;2023-05-07T01:12:20;101750.25;;;13.62;77.08
76114;BME280;64845;53.086;5.834;2023-05-07T01:14:46;101744.94;;;13.60;76.93
76114;BME280;64845;53.086;5.834;2023-05-07T01:17:11;101744.97;;;13.59;77.14
76114;BME280;64845;53.086;5.834;2023-05-07T01:19:36;101735.19;;;13.58;77.05
76114;BME280;64845;53.086;5.834;2023-05-07T01:22:08;101738.78;;;13.57;77.41
76114;BME280;64845;53.086;5.834;2023-05-07T01:24:36;101744.16;;;13.57;77.22
76114;BME280;64845;53.086;5.834;2023-05-07T01:27:02;101747.84;;;13.54;77.14
76114;BME280;64845;53.086;5.834;2023-05-07T01:29:28;101739.88;;;13.53;77.10
76114;BME280;64845;53.086;5.834;2023-05-07T01:31:54;101736.28;;;13.52;77.25
76114;BME280;64845;53.086;5.834;2023-05-07T01:34:23;101733.69;;;13.51;77.22
76114;BME280;64845;53.086;5.834;2023-05-07T01:36:50;101739.09;;;13.49;77.37
76114;BME280;64845;53.086;5.834;2023-05-07T01:39:16;101741.84;;;13.48;77.34
76114;BME280;64845;53.086;5.834;2023-05-07T01:41:42;101741.88;;;13.46;77.38
76114;BME280;64845;53.086;5.834;2023-05-07T01:44:10;101738.38;;;13.44;77.43
76114;BME280;64845;53.086;5.834;2023-05-07T01:46:36;101735.75;;;13.42;77.63
76114;BME280;64845;53.086;5.834;2023-05-07T01:49:01;101736.69;;;13.41;77.34
76114;BME280;64845;53.086;5.834;2023-05-07T01:51:27;101731.41;;;13.38;77.50
76114;BME280;64845;53.086;5.834;2023-05-07T01:53:53;101727.03;;;13.36;77.41
76114;BME280;64845;53.086;5.834;2023-05-07T01:56:18;101727.97;;;13.35;77.73
76114;BME280;64845;53.086;5.834;2023-05-07T01:58:45;101728.97;;;13.32;77.57
76114;BME280;64845;53.086;5.834;2023-05-07T02:01:13;101734.31;;;13.32;77.57
76114;BME280;64845;53.086;5.834;2023-05-07T02:03:38;101739.72;;;13.30;77.57
76114;BME280;64845;53.086;5.834;2023-05-07T02:06:03;101738.91;;;13.28;77.70
76114;BME280;64845;53.086;5.834;2023-05-07T02:08:29;101740.72;;;13.28;77.70
76114;BME280;64845;53.086;5.834;2023-05-07T02:10:55;101738.97;;;13.27;77.74
76114;BME280;64845;53.086;5.834;2023-05-07T02:13:20;101739.91;;;13.26;78.03
76114;BME280;64845;53.086;5.834;2023-05-07T02:15:47;101736.38;;;13.24;77.73
76114;BME280;64845;53.086;5.834;2023-05-07T02:18:16;101740.00;;;13.23;77.82
76114;BME280;64845;53.086;5.834;2023-05-07T02:20:41;101744.50;;;13.22;77.75
76114;BME280;64845;53.086;5.834;2023-05-07T02:23:07;101737.38;;;13.21;77.85
76114;BME280;64845;53.086;5.834;2023-05-07T02:25:32;101741.94;;;13.19;78.04
76114;BME280;64845;53.086;5.834;2023-05-07T02:27:57;101746.41;;;13.19;78.02
76114;BME280;64845;53.086;5.834;2023-05-07T02:30:24;101747.38;;;13.16;77.93
76114;BME280;64845;53.086;5.834;2023-05-07T02:32:50;101736.66;;;13.16;78.02
76114;BME280;64845;53.086;5.834;2023-05-07T02:35:16;101751.00;;;13.15;78.00
76114;BME280;64845;53.086;5.834;2023-05-07T02:37:41;101748.38;;;13.13;77.97
76114;BME280;64845;53.086;5.834;2023-05-07T02:40:07;101751.09;;;13.12;78.07
76114;BME280;64845;53.086;5.834;2023-05-07T02:42:32;101761.00;;;13.10;78.07
76114;BME280;64845;53.086;5.834;2023-05-07T02:44:58;101753.06;;;13.07;77.85
76114;BME280;64845;53.086;5.834;2023-05-07T02:47:23;101764.78;;;13.04;77.91
76114;BME280;64845;53.086;5.834;2023-05-07T02:49:48;101753.28;;;13.00;78.01
76114;BME280;64845;53.086;5.834;2023-05-07T02:52:14;101756.94;;;12.98;78.06
76114;BME280;64845;53.086;5.834;2023-05-07T02:54:39;101756.13;;;12.96;77.93
76114;BME280;64845;53.086;5.834;2023-05-07T02:57:05;101757.09;;;12.93;78.11
76114;BME280;64845;53.086;5.834;2023-05-07T02:59:30;101758.09;;;12.91;78.09
76114;BME280;64845;53.086;5.834;2023-05-07T03:01:56;101759.03;;;12.90;78.00
76114;BME280;64845;53.086;5.834;2023-05-07T03:04:21;101759.06;;;12.88;78.14
76114;BME280;64845;53.086;5.834;2023-05-07T03:06:46;101755.56;;;12.86;78.18
76114;BME280;64845;53.086;5.834;2023-05-07T03:09:12;101755.63;;;12.84;78.11
76114;BME280;64845;53.086;5.834;2023-05-07T03:11:37;101754.78;;;12.82;78.10
76114;BME280;64845;53.086;5.834;2023-05-07T03:14:03;101757.56;;;12.79;78.07
76114;BME280;64845;53.086;5.834;2023-05-07T03:16:28;101760.25;;;12.79;78.09
76114;BME280;64845;53.086;5.834;2023-05-07T03:18:53;101760.31;;;12.78;78.18
76114;BME280;64845;53.086;5.834;2023-05-07T03:21:19;101759.47;;;12.76;78.20
76114;BME280;64845;53.086;5.834;2023-05-07T03:23:44;101758.59;;;12.75;78.26
76114;BME280;64845;53.086;5.834;2023-05-07T03:26:10;101761.41;;;12.72;78.26
76114;BME280;64845;53.086;5.834;2023-05-07T03:28:36;101762.34;;;12.69;78.16
76114;BME280;64845;53.086;5.834;2023-05-07T03:31:02;101760.59;;;12.68;78.10
76114;BME280;64845;53.086;5.834;2023-05-07T03:33:27;101758.03;;;12.65;78.19
76114;BME280;64845;53.086;5.834;2023-05-07T03:35:53;101755.47;;;12.62;78.26
76114;BME280;64845;53.086;5.834;2023-05-07T03:38:18;101752.81;;;12.61;78.29
76114;BME280;64845;53.086;5.834;2023-05-07T03:40:43;101760.09;;;12.57;78.22
76114;BME280;64845;53.086;5.834;2023-05-07T03:43:09;101762.00;;;12.53;78.17
76114;BME280;64845;53.086;5.834;2023-05-07T03:45:34;101762.09;;;12.50;78.17
76114;BME280;64845;53.086;5.834;2023-05-07T03:48:00;101754.09;;;12.49;78.24
76114;BME280;64845;53.086;5.834;2023-05-07T03:50:25;101752.34;;;12.48;78.19
76114;BME280;64845;53.086;5.834;2023-05-07T03:52:51;101760.50;;;12.45;78.23
76114;BME280;64845;53.086;5.834;2023-05-07T03:55:16;101769.47;;;12.44;78.21
76114;BME280;64845;53.086;5.834;2023-05-07T03:57:41;101761.44;;;12.44;78.23
76114;BME280;64845;53.086;5.834;2023-05-07T04:00:07;101768.56;;;12.43;78.29
76114;BME280;64845;53.086;5.834;2023-05-07T04:02:33;101768.63;;;12.42;78.25
76114;BME280;64845;53.086;5.834;2023-05-07T04:04:58;101772.22;;;12.41;78.27
76114;BME280;64845;53.086;5.834;2023-05-07T04:07:24;101778.44;;;12.41;78.33
76114;BME280;64845;53.086;5.834;2023-05-07T04:09:49;101774.00;;;12.40;78.36
76114;BME280;64845;53.086;5.834;2023-05-07T04:12:15;101778.50;;;12.39;78.37
76114;BME280;64845;53.086;5.834;2023-05-07T04:14:40;101775.00;;;12.37;78.28
76114;BME280;64845;53.086;5.834;2023-05-07T04:17:05;101779.53;;;12.35;78.26
76114;BME280;64845;53.086;5.834;2023-05-07T04:19:33;101780.50;;;12.33;78.27
76114;BME280;64845;53.086;5.834;2023-05-07T04:21:58;101776.09;;;12.30;78.53
76114;BME280;64845;53.086;5.834;2023-05-07T04:24:24;101777.09;;;12.28;78.25
76114;BME280;64845;53.086;5.834;2023-05-07T04:26:49;101784.28;;;12.26;78.38
76114;BME280;64845;53.086;5.834;2023-05-07T04:29:16;101783.44;;;12.25;78.36
76114;BME280;64845;53.086;5.834;2023-05-07T04:31:42;101789.72;;;12.22;78.33
76114;BME280;64845;53.086;5.834;2023-05-07T04:34:10;101783.53;;;12.20;78.45
76114;BME280;64845;53.086;5.834;2023-05-07T04:36:37;101788.13;;;12.17;78.42
76114;BME280;64845;53.086;5.834;2023-05-07T04:39:03;101790.88;;;12.15;78.42
76114;BME280;64845;53.086;5.834;2023-05-07T04:41:29;101785.53;;;12.14;78.27
76114;BME280;64845;53.086;5.834;2023-05-07T04:43:54;101793.56;;;12.14;78.35
76114;BME280;64845;53.086;5.834;2023-05-07T04:46:20;101795.38;;;12.13;78.39
76114;BME280;64845;53.086;5.834;2023-05-07T04:48:45;101797.22;;;12.11;78.30
76114;BME280;64845;53.086;5.834;2023-05-07T04:51:11;101796.41;;;12.09;78.15
76114;BME280;64845;53.086;5.834;2023-05-07T04:53:37;101803.53;;;12.08;78.54
76114;BME280;64845;53.086;5.834;2023-05-07T04:56:03;101805.38;;;12.06;78.31
76114;BME280;64845;53.086;5.834;2023-05-07T04:58:28;101815.22;;;12.06;78.28
76114;BME280;64845;53.086;5.834;2023-05-07T05:00:57;101806.31;;;12.05;78.39
76114;BME280;64845;53.086;5.834;2023-05-07T05:03:22;101803.66;;;12.05;78.30
76114;BME280;64845;53.086;5.834;2023-05-07T05:05:49;101811.69;;;12.05;78.38
76114;BME280;64845;53.086;5.834;2023-05-07T05:08:14;101801.91;;;12.03;78.45
76114;BME280;64845;53.086;5.834;2023-05-07T05:10:40;101812.63;;;12.03;78.37
76114;BME280;64845;53.086;5.834;2023-05-07T05:13:06;101811.75;;;12.02;78.45
76114;BME280;64845;53.086;5.834;2023-05-07T05:15:33;101817.13;;;12.02;78.63
76114;BME280;64845;53.086;5.834;2023-05-07T05:17:58;101814.44;;;12.02;78.53
76114;BME280;64845;53.086;5.834;2023-05-07T05:20:23;101821.56;;;12.03;78.40
76114;BME280;64845;53.086;5.834;2023-05-07T05:22:49;101821.56;;;12.03;78.45
76114;BME280;64845;53.086;5.834;2023-05-07T05:25:15;101828.66;;;12.04;78.35
76114;BME280;64845;53.086;5.834;2023-05-07T05:27:40;101825.09;;;12.04;78.56
76114;BME280;64845;53.086;5.834;2023-05-07T05:30:06;101826.00;;;12.04;78.25
76114;BME280;64845;53.086;5.834;2023-05-07T05:32:32;101827.78;;;12.04;78.41
76114;BME280;64845;53.086;5.834;2023-05-07T05:34:57;101827.75;;;12.05;78.33
76114;BME280;64845;53.086;5.834;2023-05-07T05:37:22;101824.13;;;12.06;78.56
76114;BME280;64845;53.086;5.834;2023-05-07T05:39:48;101824.13;;;12.06;78.50
76114;BME280;64845;53.086;5.834;2023-05-07T05:42:13;101826.78;;;12.06;78.46
76114;BME280;64845;53.086;5.834;2023-05-07T05:44:39;101825.88;;;12.07;78.45
76114;BME280;64845;53.086;5.834;2023-05-07T05:47:04;101823.16;;;12.09;78.51
76114;BME280;64845;53.086;5.834;2023-05-07T05:49:29;101827.53;;;12.12;78.65
76114;BME280;64845;53.086;5.834;2023-05-07T05:51:55;101831.94;;;12.14;78.40
76114;BME280;64845;53.086;5.834;2023-05-07T05:54:21;101826.53;;;12.16;78.32
76114;BME280;64845;53.086;5.834;2023-05-07T05:56:46;101838.09;;;12.16;78.34
76114;BME280;64845;53.086;5.834;2023-05-07T05:59:12;101840.84;;;12.15;78.55
76114;BME280;64845;53.086;5.834;2023-05-07T06:01:38;101834.50;;;12.17;78.38
76114;BME280;64845;53.086;5.834;2023-05-07T06:04:04;101833.59;;;12.18;78.43
76114;BME280;64845;53.086;5.834;2023-05-07T06:06:29;101838.03;;;12.19;78.52
76114;BME280;64845;53.086;5.834;2023-05-07T06:09:02;101839.75;;;12.22;78.44
76114;BME280;64845;53.086;5.834;2023-05-07T06:11:28;101839.69;;;12.23;78.42
76114;BME280;64845;53.086;5.834;2023-05-07T06:13:53;101848.56;;;12.26;78.57
76114;BME280;64845;53.086;5.834;2023-05-07T06:16:18;101852.94;;;12.28;78.41
76114;BME280;64845;53.086;5.834;2023-05-07T06:18:44;101853.78;;;12.30;78.51
76114;BME280;64845;53.086;5.834;2023-05-07T06:21:17;101851.06;;;12.32;78.41
76114;BME280;64845;53.086;5.834;2023-05-07T06:23:43;101845.72;;;12.32;78.40
76114;BME280;64845;53.086;5.834;2023-05-07T06:26:08;101853.66;;;12.35;78.36
76114;BME280;64845;53.086;5.834;2023-05-07T06:28:34;101859.81;;;12.37;78.42
76114;BME280;64845;53.086;5.834;2023-05-07T06:31:31;101865.16;;;12.38;78.49
76114;BME280;64845;53.086;5.834;2023-05-07T06:33:57;101860.63;;;12.41;78.24
76114;BME280;64845;53.086;5.834;2023-05-07T06:36:22;101863.22;;;12.44;78.47
76114;BME280;64845;53.086;5.834;2023-05-07T06:38:48;101859.56;;;12.46;78.36
76114;BME280;64845;53.086;5.834;2023-05-07T06:41:13;101857.66;;;12.50;78.50
76114;BME280;64845;53.086;5.834;2023-05-07T06:43:38;101863.81;;;12.53;78.26
76114;BME280;64845;53.086;5.834;2023-05-07T06:46:04;101865.50;;;12.56;78.38
76114;BME280;64845;53.086;5.834;2023-05-07T06:48:30;101872.56;;;12.59;78.22
76114;BME280;64845;53.086;5.834;2023-05-07T06:50:55;101870.72;;;12.61;78.19
76114;BME280;64845;53.086;5.834;2023-05-07T06:53:22;101868.94;;;12.60;78.14
76114;BME280;64845;53.086;5.834;2023-05-07T06:55:48;101868.00;;;12.62;78.35
76114;BME280;64845;53.086;5.834;2023-05-07T06:58:13;101876.88;;;12.64;78.02
76114;BME280;64845;53.086;5.834;2023-05-07T07:00:39;101877.75;;;12.65;78.11
76114;BME280;64845;53.086;5.834;2023-05-07T07:03:06;101877.66;;;12.66;78.05
76114;BME280;64845;53.086;5.834;2023-05-07T07:05:31;101895.47;;;12.69;77.94
76114;BME280;64845;53.086;5.834;2023-05-07T07:07:56;101884.69;;;12.70;78.07
76114;BME280;64845;53.086;5.834;2023-05-07T07:10:22;101889.97;;;12.74;77.99
76114;BME280;64845;53.086;5.834;2023-05-07T07:12:48;101882.69;;;12.77;78.05
76114;BME280;64845;53.086;5.834;2023-05-07T07:15:14;101884.38;;;12.81;78.04
76114;BME280;64845;53.086;5.834;2023-05-07T07:17:40;101881.44;;;12.89;77.91
76114;BME280;64845;53.086;5.834;2023-05-07T07:20:05;101892.84;;;12.96;77.94
76114;BME280;64845;53.086;5.834;2023-05-07T07:22:31;101884.59;;;13.02;78.01
76114;BME280;64845;53.086;5.834;2023-05-07T07:24:56;101885.28;;;13.09;77.90
76114;BME280;64845;53.086;5.834;2023-05-07T07:27:22;101890.44;;;13.15;77.96
76114;BME280;64845;53.086;5.834;2023-05-07T07:29:47;101891.19;;;13.20;77.89
76114;BME280;64845;53.086;5.834;2023-05-07T07:32:13;101884.72;;;13.26;77.96
76114;BME280;64845;53.086;5.834;2023-05-07T07:34:38;101880.03;;;13.33;78.03
76114;BME280;64845;53.086;5.834;2023-05-07T07:37:03;101887.91;;;13.37;77.87
76114;BME280;64845;53.086;5.834;2023-05-07T07:39:34;101884.19;;;13.43;77.80
76114;BME280;64845;53.086;5.834;2023-05-07T07:41:59;101883.16;;;13.47;77.83
76114;BME280;64845;53.086;5.834;2023-05-07T07:44:25;101886.56;;;13.52;77.91
76114;BME280;64845;53.086;5.834;2023-05-07T07:46:51;101889.06;;;13.57;77.65
76114;BME280;64845;53.086;5.834;2023-05-07T07:49:16;101889.03;;;13.58;77.59
76114;BME280;64845;53.086;5.834;2023-05-07T07:51:42;101882.56;;;13.64;77.59
76114;BME280;64845;53.086;5.834;2023-05-07T07:54:07;101887.00;;;13.65;77.49
76114;BME280;64845;53.086;5.834;2023-05-07T07:56:33;101884.22;;;13.68;77.44
76114;BME280;64845;53.086;5.834;2023-05-07T07:58:59;101885.91;;;13.71;77.42
76114;BME280;64845;53.086;5.834;2023-05-07T08:01:24;101882.22;;;13.73;77.25
76114;BME280;64845;53.086;5.834;2023-05-07T08:03:51;101887.47;;;13.78;77.11
76114;BME280;64845;53.086;5.834;2023-05-07T08:06:16;101878.38;;;13.82;77.35
76114;BME280;64845;53.086;5.834;2023-05-07T08:08:42;101880.91;;;13.85;77.39
76114;BME280;64845;53.086;5.834;2023-05-07T08:11:07;101880.88;;;13.87;77.23
76114;BME280;64845;53.086;5.834;2023-05-07T08:13:32;101879.88;;;13.89;77.07
76114;BME280;64845;53.086;5.834;2023-05-07T08:15:58;101878.03;;;13.92;77.04
76114;BME280;64845;53.086;5.834;2023-05-07T08:18:24;101877.81;;;13.98;76.99
76114;BME280;64845;53.086;5.834;2023-05-07T08:20:50;101881.16;;;14.03;76.85
76114;BME280;64845;53.086;5.834;2023-05-07T08:23:15;101883.59;;;14.11;76.81
76114;BME280;64845;53.086;5.834;2023-05-07T08:25:41;101887.75;;;14.19;76.99
76114;BME280;64845;53.086;5.834;2023-05-07T08:28:08;101890.06;;;14.29;76.99
76114;BME280;64845;53.086;5.834;2023-05-07T08:30:33;101889.91;;;14.33;76.80
76114;BME280;64845;53.086;5.834;2023-05-07T08:32:59;101891.34;;;14.42;76.95
76114;BME280;64845;53.086;5.834;2023-05-07T08:35:25;101890.16;;;14.51;76.71
76114;BME280;64845;53.086;5.834;2023-05-07T08:37:50;101885.44;;;14.56;76.71
76114;BME280;64845;53.086;5.834;2023-05-07T08:40:16;101885.97;;;14.66;76.37
76114;BME280;64845;53.086;5.834;2023-05-07T08:42:41;101891.03;;;14.75;76.32
76114;BME280;64845;53.086;5.834;2023-05-07T08:45:09;101885.28;;;14.85;76.38
76114;BME280;64845;53.086;5.834;2023-05-07T08:47:47;101885.09;;;14.89;76.23
76114;BME280;64845;53.086;5.834;2023-05-07T08:50:16;101883.03;;;14.96;75.93
76114;BME280;64845;53.086;5.834;2023-05-07T08:52:41;101885.28;;;15.07;76.12
76114;BME280;64845;53.086;5.834;2023-05-07T08:55:08;101887.66;;;15.15;76.08
76114;BME280;64845;53.086;5.834;2023-05-07T08:57:33;101890.75;;;15.26;75.90
76114;BME280;64845;53.086;5.834;2023-05-07T08:59:59;101887.63;;;15.37;75.65
76114;BME280;64845;53.086;5.834;2023-05-07T09:02:24;101895.03;;;15.52;75.71
76114;BME280;64845;53.086;5.834;2023-05-07T09:04:50;101895.38;;;15.65;75.52
76114;BME280;64845;53.086;5.834;2023-05-07T09:07:16;101892.09;;;15.79;75.34
76114;BME280;64845;53.086;5.834;2023-05-07T09:09:43;101895.28;;;15.89;75.22
76114;BME280;64845;53.086;5.834;2023-05-07T09:12:09;101894.69;;;16.03;75.16
76114;BME280;64845;53.086;5.834;2023-05-07T09:14:35;101896.81;;;16.15;74.91
76114;BME280;64845;53.086;5.834;2023-05-07T09:17:00;101901.84;;;16.23;74.79
76114;BME280;64845;53.086;5.834;2023-05-07T09:19:26;101905.06;;;16.31;74.53
76114;BME280;64845;53.086;5.834;2023-05-07T09:22:02;101906.69;;;16.36;74.23
76114;BME280;64845;53.086;5.834;2023-05-07T09:24:28;101893.69;;;16.44;74.04
76114;BME280;64845;53.086;5.834;2023-05-07T09:26:58;101895.19;;;16.51;74.00
76114;BME280;64845;53.086;5.834;2023-05-07T09:29:24;101897.38;;;16.62;73.71
76114;BME280;64845;53.086;5.834;2023-05-07T09:31:50;101901.34;;;16.72;73.83
76114;BME280;64845;53.086;5.834;2023-05-07T09:34:15;101900.94;;;16.82;73.60
76114;BME280;64845;53.086;5.834;2023-05-07T09:36:41;101902.34;;;16.89;73.50
76114;BME280;64845;53.086;5.834;2023-05-07T09:39:07;101904.78;;;16.95;73.04
76114;BME280;64845;53.086;5.834;2023-05-07T09:41:32;101900.91;;;17.01;72.94
76114;BME280;64845;53.086;5.834;2023-05-07T09:43:58;101905.13;;;17.06;72.74
76114;BME280;64845;53.086;5.834;2023-05-07T09:46:28;101895.78;;;17.14;72.41
76114;BME280;64845;53.086;5.834;2023-05-07T09:48:57;101900.91;;;17.20;72.48
76114;BME280;64845;53.086;5.834;2023-05-07T09:51:33;101905.19;;;17.24;72.15
76114;BME280;64845;53.086;5.834;2023-05-07T09:54:02;101902.16;;;17.30;72.10
76114;BME280;64845;53.086;5.834;2023-05-07T09:56:29;101908.44;;;17.31;71.88
76114;BME280;64845;53.086;5.834;2023-05-07T09:58:57;101909.06;;;17.36;71.70
76114;BME280;64845;53.086;5.834;2023-05-07T10:01:25;101900.66;;;17.42;71.59
76114;BME280;64845;53.086;5.834;2023-05-07T10:03:51;101905.69;;;17.50;71.46
76114;BME280;64845;53.086;5.834;2023-05-07T10:06:19;101911.63;;;17.57;71.48
76114;BME280;64845;53.086;5.834;2023-05-07T10:08:45;101913.88;;;17.66;71.26
76114;BME280;64845;53.086;5.834;2023-05-07T10:11:11;101907.38;;;17.70;71.06
76114;BME280;64845;53.086;5.834;2023-05-07T10:13:36;101905.22;;;17.77;70.88
76114;BME280;64845;53.086;5.834;2023-05-07T10:16:03;101903.06;;;17.83;70.80
76114;BME280;64845;53.086;5.834;2023-05-07T10:18:33;101907.91;;;17.94;70.83
76114;BME280;64845;53.086;5.834;2023-05-07T10:23:29;101908.16;;;18.07;70.33
76114;BME280;64845;53.086;5.834;2023-05-07T10:25:57;101910.53;;;18.14;70.19
76114;BME280;64845;53.086;5.834;2023-05-07T10:28:24;101909.47;;;18.16;70.03
76114;BME280;64845;53.086;5.834;2023-05-07T10:33:23;101909.75;;;18.27;69.68
76114;BME280;64845;53.086;5.834;2023-05-07T10:35:51;101906.81;;;18.32;69.53
76114;BME280;64845;53.086;5.834;2023-05-07T10:38:20;101905.78;;;18.35;69.05
76114;BME280;64845;53.086;5.834;2023-05-07T10:40:46;101903.75;;;18.38;69.13
76114;BME280;64845;53.086;5.834;2023-05-07T10:43:11;101910.75;;;18.42;69.08
76114;BME280;64845;53.086;5.834;2023-05-07T10:45:37;101907.72;;;18.49;69.02
76114;BME280;64845;53.086;5.834;2023-05-07T10:48:13;101896.38;;;18.58;69.04
76114;BME280;64845;53.086;5.834;2023-05-07T10:50:40;101906.84;;;18.64;68.71
76114;BME280;64845;53.086;5.834;2023-05-07T10:55:45;101908.84;;;18.77;68.68
76114;BME280;64845;53.086;5.834;2023-05-07T10:58:27;101914.72;;;18.85;68.58
76114;BME280;64845;53.086;5.834;2023-05-07T11:00:57;101909.94;;;18.90;68.33
76114;BME280;64845;53.086;5.834;2023-05-07T11:03:23;101900.66;;;18.94;68.00
76114;BME280;64845;53.086;5.834;2023-05-07T11:06:09;101904.78;;;19.01;67.96
76114;BME280;64845;53.086;5.834;2023-05-07T11:09:05;101898.06;;;19.09;67.79
76114;BME280;64845;53.086;5.834;2023-05-07T11:11:49;101905.03;;;19.13;67.68
76114;BME280;64845;53.086;5.834;2023-05-07T11:17:06;101900.16;;;19.20;67.47
76114;BME280;64845;53.086;5.834;2023-05-07T11:19:54;101909.56;;;19.28;67.50
76114;BME280;64845;53.086;5.834;2023-05-07T11:25:02;101902.94;;;19.48;67.36
76114;BME280;64845;53.086;5.834;2023-05-07T11:27:28;101915.06;;;19.57;67.21
76114;BME280;64845;53.086;5.834;2023-05-07T11:29:54;101913.63;;;19.66;66.95
76114;BME280;64845;53.086;5.834;2023-05-07T11:32:23;101907.84;;;19.72;66.54
76114;BME280;64845;53.086;5.834;2023-05-07T11:34:51;101913.59;;;19.82;66.29
76114;BME280;64845;53.086;5.834;2023-05-07T11:37:18;101906.88;;;19.89;66.43
76114;BME280;64845;53.086;5.834;2023-05-07T11:39:44;101915.38;;;19.98;65.92
76114;BME280;64845;53.086;5.834;2023-05-07T11:42:29;101926.72;;;20.04;65.95
76114;BME280;64845;53.086;5.834;2023-05-07T11:44:54;101915.50;;;20.11;65.72
76114;BME280;64845;53.086;5.834;2023-05-07T11:47:20;101914.25;;;20.16;65.42
76114;BME280;64845;53.086;5.834;2023-05-07T11:49:53;101914.66;;;20.25;65.12
76114;BME280;64845;53.086;5.834;2023-05-07T11:52:20;101912.41;;;20.31;64.92
76114;BME280;64845;53.086;5.834;2023-05-07T11:54:54;101915.59;;;20.38;64.91
76114;BME280;64845;53.086;5.834;2023-05-07T11:57:23;101918.72;;;20.46;64.57
76114;BME280;64845;53.086;5.834;2023-05-07T11:59:59;101915.19;;;20.59;64.78
76114;BME280;64845;53.086;5.834;2023-05-07T12:02:25;101918.97;;;20.71;64.70
76114;BME280;64845;53.086;5.834;2023-05-07T12:04:52;101916.75;;;20.77;64.37
76114;BME280;64845;53.086;5.834;2023-05-07T12:07:17;101915.78;;;20.78;64.20
76114;BME280;64845;53.086;5.834;2023-05-07T12:09:45;101916.25;;;20.85;63.62
76114;BME280;64845;53.086;5.834;2023-05-07T12:12:12;101909.44;;;20.92;63.74
76114;BME280;64845;53.086;5.834;2023-05-07T12:14:41;101905.25;;;21.01;63.76
76114;BME280;64845;53.086;5.834;2023-05-07T12:17:08;101919.09;;;21.11;63.79
76114;BME280;64845;53.086;5.834;2023-05-07T12:19:35;101912.06;;;21.21;63.15
76114;BME280;64845;53.086;5.834;2023-05-07T12:22:02;101917.84;;;21.29;62.79
76114;BME280;64845;53.086;5.834;2023-05-07T12:24:27;101909.19;;;21.37;62.94
76114;BME280;64845;53.086;5.834;2023-05-07T12:26:53;101915.84;;;21.46;62.46
76114;BME280;64845;53.086;5.834;2023-05-07T12:29:21;101902.81;;;21.51;62.37
76114;BME280;64845;53.086;5.834;2023-05-07T12:31:49;101913.16;;;21.59;62.36
76114;BME280;64845;53.086;5.834;2023-05-07T12:34:15;101907.34;;;21.65;61.98
76114;BME280;64845;53.086;5.834;2023-05-07T12:36:40;101907.00;;;21.70;62.14
76114;BME280;64845;53.086;5.834;2023-05-07T12:39:07;101911.13;;;21.76;61.49
76114;BME280;64845;53.086;5.834;2023-05-07T12:41:56;101904.41;;;21.81;61.82
76114;BME280;64845;53.086;5.834;2023-05-07T12:44:23;101913.97;;;21.87;61.22
76114;BME280;64845;53.086;5.834;2023-05-07T12:46:49;101904.19;;;21.97;61.39
76114;BME280;64845;53.086;5.834;2023-05-07T12:49:14;101913.44;;;22.08;61.41
76114;BME280;64845;53.086;5.834;2023-05-07T12:51:40;101917.34;;;22.16;60.92
76114;BME280;64845;53.086;5.834;2023-05-07T12:54:05;101913.97;;;22.26;61.47
76114;BME280;64845;53.086;5.834;2023-05-07T12:56:31;101919.63;;;22.36;60.68
76114;BME280;64845;53.086;5.834;2023-05-07T12:58:59;101909.84;;;22.46;60.72
76114;BME280;64845;53.086;5.834;2023-05-07T13:01:29;101914.75;;;22.54;60.58